• Join FlightAware (Why Join?)
  • Login
  • US Flag 
10:01PM EDT


 

Airport Tracker/Info


-or-


 

Live Flight TrackerFlight Track Log ✈ TAM8014 ✈ 16-Sep-2013 ✈ SBGR / GRU - SABE / AEP

Flight Track Log - Related Links

Times and Time Zones

All times are in EDT time to prevent confusion due to time zone crossing. See the TAM8014 flight status page for this flight to view local times or setup timezone preferences in your user account.

Time Position Orientation Groundspeed Altitude Reporting Facility
EDT Latitude Longitude Course Direction KTS MPH feet Rate Location/Type
06:44AM -25.3894 -48.3255 220° Southwest  Level Estimated
06:45AM -25.4588 -48.3929 221° Southwest  Level Estimated
06:46AM -25.5283 -48.4604 221° Southwest  Level Estimated
06:47AM -25.5977 -48.5279 221° Southwest  Level Estimated
06:48AM -25.6671 -48.5955 221° Southwest  Level Estimated
06:49AM -25.7364 -48.6632 221° Southwest  Level Estimated
06:50AM -25.8057 -48.7309 221° Southwest  Level Estimated
06:51AM -25.8750 -48.7988 221° Southwest  Level Estimated
06:52AM -25.9443 -48.8667 221° Southwest  Level Estimated
06:53AM -26.0135 -48.9347 221° Southwest  Level Estimated
06:54AM -26.0827 -49.0028 221° Southwest  Level Estimated
06:55AM -26.1519 -49.0709 221° Southwest  Level Estimated
06:56AM -26.2210 -49.1392 222° Southwest  Level Estimated
06:57AM -26.2901 -49.2075 222° Southwest  Level Estimated
06:58AM -26.3592 -49.2759 222° Southwest  Level Estimated
06:59AM -26.4282 -49.3444 222° Southwest  Level Estimated
07:00AM -26.4972 -49.4130 222° Southwest  Level Estimated
07:01AM -26.5662 -49.4816 222° Southwest  Level Estimated
07:02AM -26.6351 -49.5504 222° Southwest  Level Estimated
07:03AM -26.7040 -49.6192 222° Southwest  Level Estimated
07:04AM -26.7729 -49.6881 222° Southwest  Level Estimated
07:05AM -26.8417 -49.7571 222° Southwest  Level Estimated
07:06AM -26.9105 -49.8262 222° Southwest  Level Estimated
07:07AM -26.9793 -49.8953 222° Southwest  Level Estimated
07:08AM -27.0480 -49.9646 222° Southwest  Level Estimated
07:09AM -27.1167 -50.0339 222° Southwest  Level Estimated
07:10AM -27.1854 -50.1033 222° Southwest  Level Estimated
07:11AM -27.2540 -50.1728 222° Southwest  Level Estimated
07:12AM -27.3226 -50.2424 222° Southwest  Level Estimated
07:13AM -27.3911 -50.3120 222° Southwest  Level Estimated
07:14AM -27.4597 -50.3818 222° Southwest  Level Estimated
07:15AM -27.5282 -50.4516 222° Southwest  Level Estimated
07:16AM -27.5966 -50.5215 222° Southwest  Level Estimated
07:17AM -27.6651 -50.5915 222° Southwest  Level Estimated
07:18AM -27.7334 -50.6617 222° Southwest  Level Estimated
07:19AM -27.8018 -50.7318 222° Southwest  Level Estimated
07:20AM -27.8701 -50.8021 222° Southwest  Level Estimated
07:21AM -27.9384 -50.8725 222° Southwest  Level Estimated
07:22AM -28.0066 -50.9430 222° Southwest  Level Estimated
07:23AM -28.0748 -51.0135 222° Southwest  Level Estimated
07:24AM -28.1430 -51.0841 222° Southwest  Level Estimated
07:25AM -28.2111 -51.1548 222° Southwest  Level Estimated
07:26AM -28.2792 -51.2257 222° Southwest  Level Estimated
07:27AM -28.3473 -51.2966 223° Southwest  Level Estimated
07:28AM -28.4153 -51.3676 223° Southwest  Level Estimated
07:29AM -28.4833 -51.4386 223° Southwest  Level Estimated
07:30AM -28.5513 -51.5098 223° Southwest  Level Estimated
07:31AM -28.6192 -51.5811 223° Southwest  Level Estimated
07:32AM -28.6871 -51.6525 223° Southwest  Level Estimated
07:33AM -28.7549 -51.7239 223° Southwest  Level Estimated
07:34AM -28.8227 -51.7955 223° Southwest  Level Estimated
07:35AM -28.8905 -51.8671 223° Southwest  Level Estimated
07:36AM -28.9582 -51.9389 223° Southwest  Level Estimated
07:37AM -29.0259 -52.0107 223° Southwest  Level Estimated
07:38AM -29.0936 -52.0826 223° Southwest  Level Estimated
07:39AM -29.1612 -52.1546 223° Southwest  Level Estimated
07:40AM -29.2287 -52.2267 223° Southwest  Level Estimated
07:41AM -29.2963 -52.2989 223° Southwest  Level Estimated
07:42AM -29.3638 -52.3712 223° Southwest  Level Estimated
07:43AM -29.4312 -52.4436 223° Southwest  Level Estimated
07:44AM -29.4987 -52.5161 223° Southwest  Level Estimated
07:45AM -29.5660 -52.5887 223° Southwest  Level Estimated
07:46AM -29.6334 -52.6614 223° Southwest  Level Estimated
07:47AM -29.7007 -52.7342 223° Southwest  Level Estimated
07:48AM -29.7679 -52.8071 223° Southwest  Level Estimated
07:49AM -29.8352 -52.8801 223° Southwest  Level Estimated
07:50AM -29.9023 -52.9532 223° Southwest  Level Estimated
07:51AM -29.9695 -53.0263 223° Southwest  Level Estimated
07:52AM -30.0366 -53.0996 223° Southwest  Level Estimated
07:53AM -30.1036 -53.1730 223° Southwest  Level Estimated
07:54AM -30.1707 -53.2465 223° Southwest  Level Estimated
07:55AM -30.2376 -53.3200 223° Southwest  Level Estimated
07:56AM -30.3046 -53.3937 224° Southwest  Level Estimated
07:57AM -30.3715 -53.4675 224° Southwest  Level Estimated
07:58AM -30.4383 -53.5414 224° Southwest  Level Estimated
07:59AM -30.5051 -53.6154 224° Southwest  Level Estimated
08:00AM -30.5719 -53.6894 224° Southwest  Level Estimated
08:01AM -30.6386 -53.7636 224° Southwest  Level Estimated
08:02AM -30.7053 -53.8379 224° Southwest  Level Estimated
08:03AM -30.7719 -53.9123 224° Southwest  Level Estimated
08:04AM -30.8386 -53.9868 224° Southwest  Level Estimated
08:05AM -30.9051 -54.0614 224° Southwest  Level Estimated
08:06AM -30.9716 -54.1361 224° Southwest  Level Estimated
08:07AM -31.0381 -54.2109 224° Southwest  Level Estimated
08:08AM -31.1045 -54.2858 224° Southwest  Level Estimated
08:09AM -31.1709 -54.3608 224° Southwest  Level Estimated
08:10AM -31.2372 -54.4359 224° Southwest  Level Estimated
08:11AM -31.3035 -54.5112 224° Southwest  Level Estimated
08:12AM -31.3698 -54.5865 224° Southwest  Level Estimated
08:13AM -31.4360 -54.6619 224° Southwest  Level Estimated
08:14AM -31.5022 -54.7375 224° Southwest  Level Estimated
08:15AM -31.5683 -54.8131 224° Southwest  Level Estimated
08:16AM -31.6344 -54.8889 224° Southwest  Level Estimated
08:17AM -31.7004 -54.9647 224° Southwest  Level Estimated
08:18AM -31.7664 -55.0407 224° Southwest  Level Estimated
08:19AM -31.8323 -55.1168 224° Southwest  Level Estimated
08:20AM -31.8982 -55.1930 224° Southwest  Level Estimated
08:21AM -31.9641 -55.2693 224° Southwest  Level Estimated
08:22AM -32.0299 -55.3457 225° Southwest  Level Estimated
08:23AM -32.0956 -55.4222 225° Southwest  Level Estimated
08:24AM -32.1614 -55.4988 225° Southwest  Level Estimated
08:25AM -32.2270 -55.5756 225° Southwest  Level Estimated
08:26AM -32.2926 -55.6524 225° Southwest  Level Estimated
08:27AM -32.3582 -55.7294 225° Southwest  Level Estimated
08:28AM -32.4237 -55.8065 225° Southwest  Level Estimated
08:29AM -32.4892 -55.8836 225° Southwest  Level Estimated
08:30AM -32.5546 -55.9609 225° Southwest  Level Estimated
08:31AM -32.6200 -56.0383 225° Southwest  Level Estimated
08:32AM -32.6854 -56.1159 225° Southwest  Level Estimated
08:33AM -32.7507 -56.1935 225° Southwest  Level Estimated
08:34AM -32.8159 -56.2713 225° Southwest  Level Estimated
08:35AM -32.8811 -56.3491 225° Southwest  Level Estimated
08:36AM -32.9463 -56.4271 225° Southwest  Level Estimated
08:37AM -33.0113 -56.5052 225° Southwest  Level Estimated
08:38AM -33.0764 -56.5834 225° Southwest  Level Estimated
08:39AM -33.1414 -56.6617 225° Southwest  Level Estimated
08:40AM -33.2063 -56.7402 225° Southwest  Level Estimated
08:41AM -33.2713 -56.8187 225° Southwest  Level Estimated
08:42AM -33.3361 -56.8974 225° Southwest  Level Estimated
08:43AM -33.4009 -56.9762 225° Southwest  Level Estimated
08:44AM -33.4656 -57.0551 225° Southwest  Level Estimated
08:45AM -33.5303 -57.1341 226° Southwest  Level Estimated
08:46AM -33.5950 -57.2133 226° Southwest  Level Estimated
08:47AM -33.6596 -57.2925 226° Southwest  Level Estimated
08:48AM -33.7242 -57.3719 226° Southwest  Level Estimated
08:49AM -33.7887 -57.4514 226° Southwest  Level Estimated
08:50AM -33.8531 -57.5310 226° Southwest  Level Estimated
08:51AM -33.9175 -57.6108 226° Southwest  Level Estimated
08:52AM -33.9818 -57.6906 226° Southwest  Level Estimated
08:53AM -34.0461 -57.7706 226° Southwest  Level Estimated
08:54AM -34.1104 -57.8507 226° Southwest  Level Estimated
08:55AM -34.1746 -57.9309 226° Southwest  Level Estimated
08:56AM -34.2387 -58.0113 226° Southwest  Level Estimated
08:57AM -34.3028 -58.0918 226° Southwest  Level Estimated
08:58AM -34.3668 -58.1724 226° Southwest  Level Estimated
08:59AM -34.4308 -58.2531 226° Southwest  Level Estimated
09:00AM -34.4947 -58.3339 226° Southwest  Level Estimated
09:01AM -34.5586 -58.4149 226° Southwest  Level Estimated
09:02AM -34.5592 -58.4156 226° Southwest  Level Estimated
09:03AM -34.5592 -58.4156 147° Southeast  Level Estimated
09:04AM -34.5592 -58.4156 33° Northeast  Level Estimated
09:05AM -34.5592 -58.4156 147° Southeast  Level Estimated
09:06AM -34.5592 -58.4156 33° Northeast  Level Estimated
09:07AM -34.5592 -58.4156 147° Southeast  Level Estimated
09:08AM -34.5592 -58.4156 33° Northeast  Level Estimated
09:09AM -34.5592 -58.4156 147° Southeast  Level Estimated
09:10AM -34.5592 -58.4156 33° Northeast  Level Estimated
09:11AM -34.5592 -58.4156 147° Southeast  Level Estimated
09:12AM -34.5592 -58.4156 33° Northeast  Level Estimated
09:13AM -34.5592 -58.4156 147° Southeast  Level Estimated
09:14AM -34.5592 -58.4156 33° Northeast  Level Estimated
09:15AM -34.5592 -58.4156 147° Southeast  Level Estimated
09:16AM -34.5592 -58.4156 33° Northeast  Level Estimated
09:17AM -34.5592 -58.4156 147° Southeast  Level Estimated